Time;durP1;ratioP1;P1;durP2;ratioP2;P2;SDS_P1;SDS_P2;PMS_P1;PMS_P2;Temp;Humidity;BMP_temperature;BMP_pressure;BME280_temperature;BME280_humidity;BME280_pressure;Samples;Min_cycle;Max_cycle;Signal;HPM_P1;HPM_P2
2022/06/16 00:01:44;;;;;;;8.15;5.38;;;20.50;99.90;;;20.67;55.56;101845.41;5114767;28;20107;-61
2022/06/16 00:04:13;;;;;;;9.07;5.80;;;20.40;99.90;;;20.60;55.94;101851.91;5114850;28;20333;-61
2022/06/16 00:06:41;;;;;;;11.48;6.47;;;20.20;99.90;;;20.57;55.92;101849.31;5114939;28;20413;-61
2022/06/16 00:09:11;;;;;;;10.23;6.28;;;20.20;99.90;;;20.62;56.14;101858.09;5114629;28;20043;-61
2022/06/16 00:11:39;;;;;;;7.35;6.53;;;20.20;99.90;;;20.53;56.19;101854.81;5115172;28;20042;-61
2022/06/16 00:14:07;;;;;;;7.68;6.35;;;20.20;99.90;;;20.44;56.60;101849.72;5114588;28;20457;-60
2022/06/16 00:16:36;;;;;;;11.52;6.75;;;20.10;99.90;;;20.25;57.13;101843.09;5114484;28;20074;-60
2022/06/16 00:19:04;;;;;;;7.25;6.28;;;19.90;99.90;;;20.29;57.06;101845.66;5114597;28;20418;-60
2022/06/16 00:21:33;;;;;;;12.27;6.65;;;19.90;99.90;;;20.41;57.05;101844.41;5114583;28;20150;-60
2022/06/16 00:24:01;;;;;;;7.90;5.72;;;20.00;99.90;;;20.54;57.06;101846.69;5114229;28;20061;-60
2022/06/16 00:26:31;;;;;;;9.52;6.85;;;20.10;99.90;;;20.57;57.10;101854.69;5113192;28;20147;-60
2022/06/16 00:28:59;;;;;;;8.07;6.07;;;20.10;99.90;;;20.64;56.93;101858.06;5114382;28;20078;-60
2022/06/16 00:31:30;;;;;;;9.05;6.43;;;20.20;99.90;;;20.66;57.02;101861.59;5096098;28;20126;-60
2022/06/16 00:33:58;;;;;;;8.68;6.03;;;20.20;99.90;;;20.69;56.70;101870.44;5114430;28;20374;-60
2022/06/16 00:36:26;;;;;;;7.57;6.43;;;20.30;99.90;;;20.76;56.77;101873.84;5114140;28;20489;-60
2022/06/16 00:38:55;;;;;;;8.70;6.30;;;20.30;99.90;;;20.80;56.39;101870.13;5114061;28;20553;-60
2022/06/16 00:41:23;;;;;;;8.75;5.95;;;20.40;99.90;;;20.80;56.50;101880.00;5114151;28;20043;-60
2022/06/16 00:43:53;;;;;;;7.60;5.68;;;20.40;99.90;;;20.88;56.38;101872.56;5114025;28;20086;-61
2022/06/16 00:46:21;;;;;;;9.52;6.05;;;20.40;99.90;;;20.90;56.18;101866.22;5114159;28;20126;-60
2022/06/16 00:48:55;;;;;;;9.73;6.20;;;20.50;99.90;;;20.89;56.15;101868.94;5114104;28;20093;-60
2022/06/16 00:51:30;;;;;;;11.45;6.63;;;20.40;99.90;;;20.90;56.06;101870.72;5113898;28;20546;-60
2022/06/16 00:54:09;;;;;;;10.00;6.65;;;20.40;99.90;;;20.65;55.87;101871.44;5114254;28;20108;-60
2022/06/16 00:56:37;;;;;;;9.52;6.00;;;20.40;99.90;;;20.75;56.23;101874.75;5114150;28;20084;-60
2022/06/16 00:59:09;;;;;;;10.85;6.32;;;20.30;99.90;;;20.72;56.03;101874.84;5114115;28;20041;-60
2022/06/16 01:01:41;;;;;;;8.52;6.00;;;20.30;99.90;;;20.78;56.24;101881.84;5095427;28;20359;-60
2022/06/16 01:06:59;;;;;;;10.57;6.40;;;20.30;99.90;;;20.69;56.34;101891.09;5113883;28;20058;-60
2022/06/16 01:09:31;;;;;;;8.40;6.18;;;20.30;99.90;;;20.61;56.24;101856.34;5095402;28;20051;-60
2022/06/16 01:15:31;;;;;;;10.23;6.40;;;20.30;99.90;;;20.72;56.13;101872.16;5095383;28;20104;-60
2022/06/16 01:18:10;;;;;;;8.77;6.18;;;20.30;99.90;;;20.56;55.86;101874.41;5113618;28;20130;-60
2022/06/16 01:20:46;;;;;;;8.60;5.97;;;20.20;99.90;;;20.55;55.98;101878.06;5113394;28;20048;-60
2022/06/16 01:23:57;;;;;;;10.10;6.45;;;20.10;99.90;;;20.63;56.09;101881.38;5113133;28;20123;-60
2022/06/16 01:26:55;;;;;;;10.02;6.10;;;20.20;99.90;;;20.11;56.11;101808.50;5113381;28;20051;-60
2022/06/16 01:29:33;;;;;;;7.93;5.75;;;20.20;99.90;;;20.49;56.38;101877.34;5095056;28;20399;-60
2022/06/16 01:32:11;;;;;;;9.82;6.90;;;20.10;99.90;;;20.55;56.43;101877.16;5095028;28;20240;-60
2022/06/16 01:34:48;;;;;;;8.18;6.47;;;20.10;99.90;;;20.51;56.27;101884.44;5094938;28;20047;-60
2022/06/16 01:37:23;;;;;;;10.77;7.30;;;20.10;99.90;;;20.23;56.08;101855.69;5113244;28;20435;-60
2022/06/16 01:40:03;;;;;;;8.75;6.82;;;20.10;99.90;;;20.22;55.85;101860.19;5094583;28;20130;-60
2022/06/16 01:42:40;;;;;;;9.40;6.82;;;20.00;99.90;;;20.38;55.84;101884.84;5094914;28;20043;-60
2022/06/16 01:45:16;;;;;;;12.43;7.28;;;20.00;99.90;;;20.25;55.92;101878.91;5113265;28;20054;-60
2022/06/16 01:47:50;;;;;;;8.15;6.25;;;19.90;99.90;;;20.30;56.51;101892.22;5094931;28;20135;-60
2022/06/16 01:50:28;;;;;;;9.25;6.43;;;19.90;99.90;;;20.28;56.45;101897.66;5094758;28;20134;-60
2022/06/16 01:53:03;;;;;;;8.60;6.25;;;19.80;99.90;;;20.29;56.27;101894.03;5094802;28;20047;-60
2022/06/16 01:55:36;;;;;;;9.20;6.78;;;19.90;99.90;;;20.03;55.98;101896.53;5113080;28;20040;-60
2022/06/16 01:58:11;;;;;;;9.52;6.07;;;19.70;99.90;;;20.15;56.67;101887.25;5094738;28;20044;-60
2022/06/16 02:00:43;;;;;;;9.48;5.97;;;19.70;99.90;;;20.16;56.67;101895.28;5094682;28;20534;-60
2022/06/16 02:03:20;;;;;;;10.68;6.70;;;19.70;99.90;;;20.08;56.86;101891.91;5094810;28;20044;-60
2022/06/16 02:05:55;;;;;;;9.30;6.43;;;19.70;99.90;;;20.10;56.64;101911.56;5113038;28;20441;-60
2022/06/16 02:08:28;;;;;;;11.38;7.10;;;19.80;99.90;;;19.87;56.31;101900.53;5094706;28;20120;-60
2022/06/16 02:11:02;;;;;;;10.52;6.70;;;19.60;99.90;;;19.92;56.25;101903.13;5094780;28;20084;-60
2022/06/16 02:13:37;;;;;;;11.95;6.80;;;19.50;99.90;;;19.88;55.85;101899.59;5094594;28;20086;-60
2022/06/16 02:16:14;;;;;;;9.23;6.53;;;19.50;99.90;;;19.77;55.59;101886.47;5094412;28;20105;-60
2022/06/16 02:18:44;;;;;;;11.13;7.32;;;19.40;99.90;;;19.69;55.68;101877.72;5094891;28;20051;-60
2022/06/16 02:21:18;;;;;;;11.13;7.40;;;19.30;99.90;;;19.34;55.59;101884.88;5113624;28;20096;-60
2022/06/16 02:23:46;;;;;;;11.45;7.38;;;19.10;99.90;;;19.24;55.83;101894.06;5112998;28;20040;-60
2022/06/16 02:26:15;;;;;;;10.57;7.13;;;19.00;99.90;;;19.32;56.85;101892.97;5094554;28;20036;-60
2022/06/16 02:28:47;;;;;;;10.13;7.10;;;18.90;99.90;;;19.36;56.52;101901.81;5094427;28;20093;-60
2022/06/16 02:31:31;;;;;;;10.50;6.68;;;18.90;99.90;;;19.40;56.52;101907.09;5094481;28;20052;-60
2022/06/16 02:34:11;;;;;;;9.35;6.90;;;18.90;99.90;;;19.41;56.61;101910.66;5094418;28;20476;-60
2022/06/16 02:37:11;;;;;;;8.38;6.63;;;19.00;99.90;;;19.51;56.50;101898.78;5112772;28;20036;-60
2022/06/16 02:40:07;;;;;;;9.10;6.05;;;19.10;99.90;;;19.11;56.40;101838.91;5094344;28;20218;-60
2022/06/16 02:42:44;;;;;;;9.80;6.85;;;19.10;99.90;;;19.27;55.70;101873.41;5094204;28;20040;-60
2022/06/16 02:45:24;;;;;;;9.13;6.63;;;19.10;99.90;;;19.61;55.67;101921.78;5112374;28;20065;-60
2022/06/16 02:48:04;;;;;;;8.85;6.30;;;19.20;99.90;;;19.60;54.90;101920.03;5112534;28;20426;-60
2022/06/16 02:50:44;;;;;;;10.27;7.30;;;19.20;99.90;;;19.63;54.82;101928.00;5115535;28;20048;-60
2022/06/16 02:53:26;;;;;;;10.80;6.53;;;19.20;99.90;;;19.65;54.42;101934.22;5098139;28;20377;-60
2022/06/16 02:56:04;;;;;;;9.98;7.03;;;19.20;99.90;;;19.49;54.41;101927.47;5097875;28;20489;-60
2022/06/16 02:58:36;;;;;;;10.30;6.75;;;19.10;99.90;;;19.56;53.71;101929.97;5097930;28;20139;-60
2022/06/16 03:01:06;;;;;;;11.65;6.60;;;19.10;99.90;;;19.52;53.56;101935.44;5116375;28;20093;-60
2022/06/16 03:03:38;;;;;;;7.03;6.07;;;19.10;99.90;;;19.34;53.05;101928.69;5097756;28;20039;-60
2022/06/16 03:06:12;;;;;;;8.10;6.75;;;19.00;99.90;;;19.09;53.65;101921.22;5097795;28;20055;-60
2022/06/16 03:08:49;;;;;;;8.90;7.30;;;18.80;99.90;;;19.02;53.99;101919.59;5097664;28;20132;-60
2022/06/16 03:11:17;;;;;;;11.02;7.38;;;18.70;99.90;;;18.88;54.13;101930.63;5097438;28;20051;-60
2022/06/16 03:13:45;;;;;;;8.68;7.00;;;18.60;99.90;;;18.67;54.65;101921.25;5097443;28;20433;-60
2022/06/16 03:16:26;;;;;;;7.85;7.05;;;18.40;99.90;;;18.50;55.08;101930.53;5097543;28;20142;-60
2022/06/16 03:18:58;;;;;;;;;;;18.30;99.90;;;18.58;55.24;101926.78;5098172;28;20078;-60
2022/06/16 03:21:28;;;;;;;9.93;7.65;;;18.30;99.90;;;18.67;55.23;101939.13;5097433;28;19923;-60
2022/06/16 03:23:57;;;;;;;8.48;7.53;;;18.20;99.90;;;18.64;55.48;101936.50;5097403;28;20402;-60
2022/06/16 03:26:26;;;;;;;9.40;7.43;;;18.20;99.90;;;18.75;55.53;101938.06;5097344;28;20044;-60
2022/06/16 03:28:58;;;;;;;11.75;7.18;;;18.30;99.90;;;18.81;55.33;101937.03;5097236;28;20065;-60
2022/06/16 03:31:28;;;;;;;10.53;7.80;;;18.40;99.90;;;18.42;55.62;101884.22;5097106;28;20097;-60
2022/06/16 03:33:59;;;;;;;11.52;7.00;;;18.40;99.90;;;18.86;55.62;101944.06;5097069;28;20362;-60
2022/06/16 03:36:33;;;;;;;10.30;7.72;;;18.50;99.90;;;18.89;55.22;101940.44;5097012;28;20150;-60
2022/06/16 03:39:03;;;;;;;14.05;7.72;;;18.50;99.90;;;18.69;55.28;101910.47;5097126;28;20492;-60
2022/06/16 03:41:34;;;;;;;9.75;7.10;;;18.50;99.90;;;18.79;55.15;101955.81;5096887;28;20127;-60
2022/06/16 03:44:06;;;;;;;11.02;6.88;;;18.40;99.90;;;18.88;55.95;101955.66;5096761;28;20554;-60
2022/06/16 03:46:34;;;;;;;10.63;7.03;;;18.40;99.90;;;18.81;55.45;101954.00;5096772;28;20514;-60
2022/06/16 03:49:10;;;;;;;13.52;7.72;;;18.40;99.90;;;18.96;56.10;101958.16;5096804;28;20046;-60
2022/06/16 03:51:47;;;;;;;8.43;6.88;;;18.50;99.90;;;18.90;55.97;101945.78;5096674;28;20047;-60
2022/06/16 03:54:20;;;;;;;13.60;7.53;;;18.60;99.90;;;19.09;55.81;101973.06;5096767;28;20123;-60
2022/06/16 03:56:53;;;;;;;11.13;7.53;;;18.70;99.90;;;19.12;55.49;101969.44;5096784;28;20052;-60
2022/06/16 03:59:22;;;;;;;10.73;7.82;;;18.70;99.90;;;18.92;55.21;101973.44;5114931;28;20047;-60
2022/06/16 04:01:55;;;;;;;10.65;7.20;;;18.60;99.90;;;18.92;55.20;101984.16;5096225;28;20061;-62
2022/06/16 04:04:33;;;;;;;8.25;6.90;;;18.50;99.90;;;18.83;55.22;101951.31;5096520;28;20067;-60
2022/06/16 04:07:05;;;;;;;12.43;7.50;;;18.50;99.90;;;19.05;55.17;101991.97;5096634;28;20140;-60
2022/06/16 04:09:37;;;;;;;9.50;7.10;;;18.60;99.90;;;19.04;55.33;101991.06;5096502;28;20499;-60
2022/06/16 04:12:07;;;;;;;10.18;7.55;;;18.60;99.90;;;19.08;55.47;101994.56;5096211;28;20050;-60
2022/06/16 04:14:37;;;;;;;11.45;7.68;;;18.70;99.90;;;19.08;54.99;101999.94;5096244;28;20053;-60
2022/06/16 04:17:06;;;;;;;12.52;7.63;;;18.60;99.90;;;19.13;55.01;101998.03;5095762;28;20127;-60
2022/06/16 04:22:43;;;;;;;9.10;6.47;;;18.70;99.90;;;19.08;55.73;101990.09;5096084;28;20051;-60
2022/06/16 04:25:21;;;;;;;8.80;7.20;;;18.80;99.90;;;19.24;55.44;102002.22;5096117;28;20062;-60
2022/06/16 04:27:50;;;;;;;9.20;7.70;;;18.80;99.90;;;19.27;55.34;102014.72;5096100;28;20048;-60
2022/06/16 04:30:19;;;;;;;9.90;7.88;;;18.90;99.90;;;18.89;54.80;101946.66;5096030;28;20187;-60
2022/06/16 04:32:48;;;;;;;11.05;7.10;;;18.90;99.90;;;19.32;55.25;102027.13;5096099;28;20362;-60
2022/06/16 04:35:19;;;;;;;11.75;7.68;;;18.90;99.90;;;19.28;55.32;102011.13;5096320;28;20390;-60
2022/06/16 04:37:54;;;;;;;10.45;7.65;;;18.90;99.90;;;19.33;54.96;102030.72;5096170;28;20214;-60
2022/06/16 04:40:23;;;;;;;8.43;7.47;;;18.90;99.90;;;19.47;55.13;102044.72;5095852;28;20075;-60
2022/06/16 04:42:54;;;;;;;11.02;7.80;;;19.00;99.90;;;19.44;54.77;102037.63;5095479;28;20058;-60
2022/06/16 04:45:23;;;;;;;9.35;7.10;;;19.00;99.90;;;19.49;54.64;102049.13;5095714;28;20143;-60
2022/06/16 04:47:51;;;;;;;13.10;7.07;;;19.00;99.90;;;19.38;54.29;102050.28;5095625;28;20497;-60
2022/06/16 04:50:23;;;;;;;9.48;7.80;;;19.00;99.90;;;19.47;54.40;102044.72;5095671;28;20071;-60
2022/06/16 04:52:54;;;;;;;10.85;7.18;;;19.00;99.90;;;19.54;54.16;102054.41;5095789;28;20071;-60
2022/06/16 04:55:27;;;;;;;14.27;7.53;;;19.10;99.90;;;19.47;54.03;102056.31;5095487;28;20096;-60
2022/06/16 04:58:01;;;;;;;9.70;7.22;;;19.10;99.90;;;19.18;53.77;102031.00;5113626;28;20047;-60
2022/06/16 05:00:57;;;;;;;10.75;6.82;;;19.00;99.90;;;19.26;54.46;102069.31;5111316;28;20087;-60
2022/06/16 05:04:04;;;;;;;8.60;6.88;;;18.90;99.90;;;19.30;54.00;102060.28;5113576;28;20541;-60
2022/06/16 05:06:45;;;;;;;10.20;7.18;;;18.90;99.90;;;19.14;53.43;102065.09;5095591;28;20051;-60
2022/06/16 05:09:23;;;;;;;8.98;6.72;;;18.80;99.90;;;18.93;54.36;102061.00;5113552;28;20504;-60
2022/06/16 05:12:10;;;;;;;12.57;7.72;;;18.60;99.90;;;18.70;55.93;102063.25;5113508;28;20135;-60
2022/06/16 05:14:51;;;;;;;8.80;7.25;;;18.40;99.90;;;18.29;55.79;102070.22;5095798;28;20143;-60
2022/06/16 05:17:31;;;;;;;13.15;7.40;;;18.00;99.90;;;17.93;55.71;101970.84;5095644;28;20047;-60
2022/06/16 05:20:18;;;;;;;9.20;6.72;;;18.10;99.90;;;18.74;55.90;102067.63;5114021;28;20050;-60
2022/06/16 05:23:14;;;;;;;13.68;7.40;;;18.30;99.90;;;18.88;54.86;102089.72;5095159;28;20139;-60
2022/06/16 05:26:01;;;;;;;9.73;6.80;;;18.40;99.90;;;18.49;55.06;102085.09;5113489;28;20545;-60
2022/06/16 05:29:01;;;;;;;9.20;7.35;;;18.30;99.90;;;18.03;55.87;102074.22;5077771;28;20138;-60
2022/06/16 05:31:48;;;;;;;13.18;7.38;;;17.70;99.90;;;18.24;56.11;102072.97;5113070;28;20092;-60
2022/06/16 05:34:44;;;;;;;11.35;7.13;;;17.70;99.90;;;18.25;56.26;102064.06;5094764;28;20066;-60
2022/06/16 05:37:33;;;;;;;9.23;6.72;;;17.90;99.90;;;18.51;55.54;102072.53;5094780;28;20089;-60
2022/06/16 05:40:21;;;;;;;13.10;7.05;;;18.00;99.90;;;18.66;55.57;102048.13;5112631;28;20068;-60
2022/06/16 05:42:59;;;;;;;9.70;6.22;;;18.30;99.90;;;19.11;54.95;102081.22;5112973;28;20134;-60
2022/06/16 05:45:46;;;;;;;9.95;7.20;;;18.60;99.90;;;18.53;54.38;102081.44;5112814;28;20557;-61
2022/06/16 05:48:22;;;;;;;9.20;6.78;;;18.40;99.90;;;18.62;54.94;102093.81;5094550;28;20096;-60
2022/06/16 05:50:55;;;;;;;9.50;6.80;;;18.20;99.90;;;18.80;55.24;102091.66;5094512;28;20066;-60
2022/06/16 05:53:25;;;;;;;10.13;6.78;;;18.40;99.90;;;18.82;55.04;102095.19;5094513;28;20160;-60
2022/06/16 05:55:55;;;;;;;9.20;6.90;;;18.40;99.90;;;18.81;56.27;102087.19;5094405;28;20184;-60
2022/06/16 05:58:23;;;;;;;9.32;7.32;;;18.40;99.90;;;18.86;55.60;102098.69;5094401;28;20048;-60
2022/06/16 06:00:53;;;;;;;12.65;6.72;;;18.50;99.90;;;19.09;54.86;102096.47;5094404;28;20052;-60
2022/06/16 06:03:26;;;;;;;9.55;6.55;;;18.60;99.90;;;18.94;55.64;102056.53;5093918;28;20107;-60
2022/06/16 06:05:54;;;;;;;11.23;6.43;;;18.70;99.90;;;19.52;55.02;102083.06;5094244;28;20092;-60
2022/06/16 06:17:07;;;;;;;12.68;7.00;;;18.10;99.90;;;18.42;55.97;102102.19;5112474;28;20561;-60
2022/06/16 06:19:35;;;;;;;10.05;7.07;;;18.00;99.90;;;18.38;56.20;102089.72;5112621;28;20126;-60
2022/06/16 06:22:10;;;;;;;10.20;6.45;;;18.00;99.90;;;18.56;56.13;102094.78;5112484;28;20061;-61
2022/06/16 06:24:43;;;;;;;13.63;6.75;;;18.10;99.90;;;18.46;55.55;102090.50;5113713;28;20043;-60
2022/06/16 06:27:35;;;;;;;10.40;6.22;;;18.10;99.90;;;18.50;55.78;102088.66;5098304;28;20195;-60
2022/06/16 06:30:10;;;;;;;11.55;7.32;;;18.10;99.90;;;18.30;54.99;102061.28;5098331;28;20439;-60
2022/06/16 06:32:39;;;;;;;11.88;6.55;;;18.00;99.90;;;18.63;55.51;102099.13;5097920;28;20082;-60
2022/06/16 06:35:08;;;;;;;9.93;6.35;;;18.20;99.90;;;18.56;54.01;102097.44;5116523;28;20158;-60
2022/06/16 06:37:37;;;;;;;7.47;5.53;;;18.20;99.90;;;18.63;53.27;102107.16;5115098;28;20458;-61
2022/06/16 06:40:07;;;;;;;11.13;5.95;;;18.20;99.90;;;18.70;53.74;102103.47;5097875;28;20405;-60
2022/06/16 06:42:37;;;;;;;9.57;6.32;;;18.20;99.90;;;18.60;54.63;102107.22;5115982;28;20037;-60
2022/06/16 06:45:07;;;;;;;8.55;5.97;;;18.20;99.90;;;18.71;53.72;102099.88;5116042;28;20086;-60
2022/06/16 06:47:35;;;;;;;6.43;5.75;;;18.30;99.90;;;19.15;54.45;102111.53;5116260;28;20104;-60
2022/06/16 06:50:05;;;;;;;6.93;5.60;;;18.60;99.90;;;19.26;53.61;102107.72;5115876;28;20040;-60
2022/06/16 06:52:34;;;;;;;10.60;6.18;;;18.70;99.90;;;18.90;53.56;102121.88;5115937;28;20047;-60
2022/06/16 06:55:02;;;;;;;7.68;5.85;;;18.60;99.90;;;18.82;53.79;102122.00;5115778;28;20043;-60
2022/06/16 06:57:31;;;;;;;9.55;5.28;;;18.40;99.90;;;18.88;54.00;102121.00;5115659;28;20063;-60
2022/06/16 07:00:01;;;;;;;9.75;5.97;;;18.40;99.90;;;19.34;54.07;102121.03;5115492;28;20066;-60
2022/06/16 07:02:30;;;;;;;10.37;5.97;;;18.70;99.90;;;19.23;54.50;102131.06;5115510;28;20130;-60
2022/06/16 07:04:58;;;;;;;9.15;5.97;;;18.80;99.90;;;19.12;52.19;102127.72;5115970;28;20289;-60
2022/06/16 07:07:27;;;;;;;8.35;5.90;;;18.80;99.90;;;19.21;51.31;102132.88;5115505;28;20039;-60
2022/06/16 07:09:55;;;;;;;9.23;6.75;;;18.80;99.90;;;19.18;53.16;102131.13;5115323;28;20035;-60
2022/06/16 07:12:23;;;;;;;7.25;6.25;;;18.70;99.90;;;19.26;52.47;102133.69;5115805;28;20039;-61
2022/06/16 07:14:52;;;;;;;9.30;6.13;;;18.80;99.90;;;19.68;52.74;102141.78;5115259;28;20096;-60
2022/06/16 07:17:24;;;;;;;12.05;5.90;;;19.10;99.90;;;19.77;51.70;102124.56;5114990;28;20373;-60
2022/06/16 07:19:54;;;;;;;9.50;6.18;;;19.40;99.90;;;19.34;51.06;102142.50;5115329;28;20093;-60
2022/06/16 07:22:23;;;;;;;9.37;6.43;;;19.10;99.90;;;19.23;51.82;102144.47;5115681;28;20380;-60
2022/06/16 07:24:51;;;;;;;16.80;5.75;;;18.90;99.90;;;19.51;51.81;102146.59;5115010;28;20305;-60
2022/06/16 07:27:21;;;;;;;10.30;5.93;;;19.00;99.90;;;19.87;52.63;102155.69;5115357;28;20050;-60
2022/06/16 07:29:50;;;;;;;9.32;5.88;;;19.30;99.90;;;19.93;53.01;102160.03;5115164;28;20047;-60
2022/06/16 07:32:21;;;;;;;8.15;5.78;;;19.40;99.90;;;19.85;52.12;102148.56;5115267;28;20035;-60
2022/06/16 07:34:50;;;;;;;8.30;5.50;;;19.40;99.90;;;20.02;49.83;102143.69;5114945;28;20058;-60
2022/06/16 07:37:19;;;;;;;7.72;4.93;;;19.70;99.90;;;20.36;48.98;102161.72;5115202;28;20063;-60
2022/06/16 07:39:48;;;;;;;10.57;5.30;;;19.90;99.90;;;20.49;48.22;102167.69;5115023;28;20044;-60
2022/06/16 07:42:16;;;;;;;13.57;5.47;;;20.00;99.90;;;20.23;47.51;102168.31;5114980;28;20373;-60
2022/06/16 07:44:45;;;;;;;8.60;4.75;;;19.90;99.90;;;20.04;48.94;102166.03;5114802;28;20051;-61
2022/06/16 07:47:13;;;;;;;10.73;5.38;;;19.70;99.90;;;20.20;48.17;102183.63;5115121;28;20040;-60
2022/06/16 07:49:45;;;;;;;7.43;4.82;;;19.70;99.90;;;20.27;48.42;102163.75;5114983;28;20075;-60
2022/06/16 07:52:13;;;;;;;7.25;4.95;;;19.80;99.90;;;20.56;49.29;102183.63;5114961;28;20101;-60
2022/06/16 07:54:43;;;;;;;6.22;5.10;;;20.00;99.90;;;20.75;47.75;102191.25;5114827;28;20043;-60
2022/06/16 07:57:22;;;;;;;9.52;5.10;;;20.30;99.90;;;20.29;47.46;102172.66;5115157;28;20039;-61
2022/06/16 07:59:59;;;;;;;9.48;5.03;;;20.00;99.90;;;20.51;46.85;102182.88;5114785;28;20513;-60
2022/06/16 08:02:28;;;;;;;10.13;4.65;;;20.00;99.90;;;20.41;47.53;102185.81;5114720;28;20104;-61
2022/06/16 08:04:58;;;;;;;7.93;4.85;;;20.00;99.90;;;20.31;48.27;102176.19;5114866;28;20448;-61
2022/06/16 08:07:26;;;;;;;6.90;4.75;;;19.90;99.90;;;20.49;47.71;102186.50;5114716;28;20062;-61
2022/06/16 08:09:54;;;;;;;6.30;5.35;;;20.00;99.90;;;20.63;46.73;102185.25;5114854;28;20469;-60
2022/06/16 08:12:24;;;;;;;7.70;4.75;;;20.20;99.90;;;20.91;47.59;102189.91;5114603;28;20477;-60
2022/06/16 08:14:53;;;;;;;6.40;4.32;;;20.30;99.90;;;21.16;47.02;102196.47;5114540;28;20130;-60
2022/06/16 08:17:25;;;;;;;8.73;4.95;;;20.70;99.90;;;21.41;46.00;102178.72;5114709;28;20052;-60
2022/06/16 08:19:56;;;;;;;7.22;5.55;;;20.90;99.90;;;20.97;45.54;102189.75;5114482;28;20040;-60
2022/06/16 08:22:26;;;;;;;;;;;20.70;99.90;;;21.43;47.38;102185.81;5115194;28;20051;-61
2022/06/16 08:24:55;;;;;;;6.80;4.75;;;20.90;99.90;;;21.58;48.29;102172.84;5114925;28;19973;-61
2022/06/16 08:27:27;;;;;;;8.85;4.28;;;21.10;99.90;;;21.52;45.78;102182.00;5114679;28;20058;-61
2022/06/16 08:29:56;;;;;;;10.48;4.95;;;21.10;99.90;;;21.17;45.62;102190.16;5114803;28;20043;-61
2022/06/16 08:32:25;;;;;;;7.57;4.80;;;20.80;99.90;;;21.54;45.30;102201.69;5114613;28;20040;-61
2022/06/16 08:34:53;;;;;;;7.35;4.65;;;21.00;99.90;;;21.64;44.75;102176.22;5114692;28;20047;-61
2022/06/16 08:37:24;;;;;;;5.88;4.50;;;21.20;99.90;;;21.61;46.68;102199.69;5114068;28;20130;-61
2022/06/16 08:39:52;;;;;;;7.05;4.75;;;21.20;99.90;;;21.89;45.38;102196.16;5114376;28;20050;-60
2022/06/16 08:42:27;;;;;;;12.20;4.57;;;21.40;99.90;;;22.07;45.55;102197.44;5114234;28;20032;-61
2022/06/16 08:45:03;;;;;;;5.88;4.10;;;21.60;99.90;;;22.43;45.32;102196.28;5114202;28;20039;-61
2022/06/16 08:47:39;;;;;;;6.47;4.53;;;21.90;99.90;;;22.76;44.79;102194.34;5112926;28;20483;-61
2022/06/16 08:50:22;;;;;;;7.88;4.63;;;22.30;99.90;;;22.84;43.19;102203.91;5114112;28;20142;-60
2022/06/16 08:53:07;;;;;;;8.38;4.00;;;22.50;99.90;;;22.19;44.51;102176.38;5113721;28;20122;-60
2022/06/16 08:55:42;;;;;;;7.38;4.97;;;22.10;99.90;;;22.05;44.12;102197.47;5113632;28;20070;-60
2022/06/16 08:58:18;;;;;;;7.32;4.63;;;21.70;99.90;;;22.47;45.18;102206.06;5113806;28;20412;-61
2022/06/16 09:00:52;;;;;;;6.43;4.50;;;21.90;99.90;;;22.22;43.79;102199.69;5113531;28;20059;-60
2022/06/16 09:03:28;;;;;;;8.55;4.97;;;21.80;99.90;;;22.04;43.49;102194.84;5113564;28;20063;-60
2022/06/16 09:06:04;;;;;;;9.18;5.43;;;21.60;99.90;;;22.55;44.24;102190.47;5113386;28;20092;-60
2022/06/16 09:08:47;;;;;;;11.45;5.00;;;22.00;99.90;;;22.15;43.49;102190.88;5113554;28;20052;-60
2022/06/16 09:11:26;;;;;;;7.82;4.15;;;22.00;99.90;;;22.63;44.27;102201.94;5113198;28;20048;-60
2022/06/16 09:17:23;;;;;;;13.02;5.28;;;22.30;99.90;;;22.96;43.32;102216.13;5112334;28;20529;-60
2022/06/16 09:20:06;;;;;;;7.40;4.65;;;22.50;99.90;;;23.16;42.96;102195.63;5113296;28;20397;-60
2022/06/16 09:23:01;;;;;;;7.32;4.53;;;22.80;99.90;;;23.70;42.61;102208.06;5113189;28;20532;-60
2022/06/16 09:25:51;;;;;;;9.10;4.45;;;23.20;99.90;;;23.42;41.05;102143.41;5112812;28;20086;-60
2022/06/16 09:28:25;;;;;;;6.50;4.63;;;23.50;99.90;;;22.70;43.59;102202.63;5112927;28;20457;-60
2022/06/16 09:30:56;;;;;;;7.53;4.80;;;22.60;99.90;;;22.65;42.15;102197.38;5112816;28;20074;-60
2022/06/16 09:33:29;;;;;;;9.80;4.95;;;22.20;99.90;;;22.68;42.94;102200.00;5112861;28;20063;-60
2022/06/16 09:36:03;;;;;;;8.23;4.85;;;22.10;99.90;;;23.03;42.52;102210.47;5112811;28;20514;-60
2022/06/16 09:38:37;;;;;;;7.55;4.85;;;22.50;99.90;;;22.37;44.88;102201.88;5113332;28;20097;-60
2022/06/16 09:43:59;;;;;;;9.13;4.78;;;22.30;99.90;;;23.36;42.77;102212.97;5111804;28;20071;-60
2022/06/16 09:46:35;;;;;;;7.95;5.00;;;22.80;99.90;;;23.60;43.03;102204.84;5112651;28;20085;-60
2022/06/16 09:49:08;;;;;;;6.55;5.18;;;23.20;99.90;;;23.59;42.49;102216.59;5112561;28;20055;-60
2022/06/16 09:51:41;;;;;;;6.90;4.90;;;23.20;99.90;;;23.26;41.85;102186.25;5112621;28;20100;-61
2022/06/16 09:54:16;;;;;;;8.48;4.50;;;23.10;99.90;;;22.97;42.59;102201.69;5094503;28;20447;-60
2022/06/16 09:57:02;;;;;;;9.70;4.28;;;22.90;99.90;;;22.94;42.99;102213.47;5112806;28;20043;-61
2022/06/16 09:59:35;;;;;;;7.30;4.65;;;22.50;99.90;;;23.21;44.67;102220.63;5112297;28;20070;-61
2022/06/16 10:02:18;;;;;;;6.80;4.72;;;22.70;99.90;;;23.26;42.15;102217.78;5112893;28;20055;-61
2022/06/16 10:04:50;;;;;;;6.63;5.28;;;22.90;99.90;;;23.50;44.76;102211.50;5112639;28;20040;-61
2022/06/16 10:07:26;;;;;;;10.88;5.40;;;22.90;99.90;;;23.99;43.24;102221.38;5112476;28;20104;-61
2022/06/16 10:10:01;;;;;;;9.38;5.03;;;23.40;99.90;;;24.33;41.76;102226.41;5112338;28;20050;-61
2022/06/16 10:12:38;;;;;;;7.38;4.57;;;23.90;99.90;;;23.76;40.66;102197.03;5112274;28;20051;-60
2022/06/16 10:15:16;;;;;;;8.00;4.70;;;23.70;99.90;;;24.13;41.67;102219.06;5112300;28;20083;-61
2022/06/16 10:17:46;;;;;;;11.48;4.93;;;23.60;99.90;;;24.17;41.48;102215.28;5112634;28;20441;-60
2022/06/16 10:20:17;;;;;;;;;;;23.80;99.90;;;23.38;43.43;102225.47;5112880;28;20435;-60
2022/06/16 10:22:50;;;;;;;8.75;4.60;;;23.20;99.90;;;23.89;42.06;102228.97;5112649;28;20295;-61
2022/06/16 10:25:25;;;;;;;6.95;4.85;;;23.30;99.90;;;23.80;41.97;102229.31;5112312;28;20078;-60
2022/06/16 10:28:02;;;;;;;10.15;5.05;;;23.40;99.90;;;23.19;42.64;102218.91;5112246;28;20448;-60
2022/06/16 10:30:37;;;;;;;8.70;4.40;;;22.90;99.90;;;23.30;41.92;102224.84;5112251;28;20112;-60
2022/06/16 10:33:18;;;;;;;9.32;5.30;;;22.80;99.90;;;23.55;42.27;102224.84;5112414;28;20051;-61
2022/06/16 10:35:53;;;;;;;7.88;4.70;;;23.10;99.90;;;23.56;41.79;102219.41;5112371;28;20124;-60
2022/06/16 10:38:31;;;;;;;7.05;4.70;;;23.00;99.90;;;24.11;40.84;102232.66;5112105;28;20040;-61
2022/06/16 10:41:01;;;;;;;6.97;4.82;;;23.50;99.90;;;23.90;40.98;102233.44;5112050;28;20518;-61
2022/06/16 10:43:43;;;;;;;10.43;5.13;;;23.60;99.90;;;24.03;42.34;102233.88;5112042;28;20047;-60
2022/06/16 10:46:19;;;;;;;8.43;4.80;;;23.70;99.90;;;23.97;40.86;102239.47;5093876;28;20301;-60
2022/06/16 10:48:52;;;;;;;9.07;4.57;;;23.50;99.90;;;24.34;40.74;102210.09;5112387;28;20063;-61
2022/06/16 10:51:23;;;;;;;8.10;4.72;;;23.90;99.90;;;23.91;40.42;102208.16;5112009;28;20040;-61
2022/06/16 10:54:04;;;;;;;6.65;4.57;;;23.80;99.90;;;24.30;41.21;102238.22;5112085;28;20094;-61
2022/06/16 10:56:32;;;;;;;11.60;4.82;;;23.80;99.90;;;24.17;41.22;102231.53;5112435;28;20071;-61
2022/06/16 10:59:05;;;;;;;9.43;4.90;;;23.80;99.90;;;24.15;42.49;102226.19;5111986;28;20142;-63
2022/06/16 11:01:40;;;;;;;8.77;4.85;;;23.70;99.90;;;23.94;42.44;102223.38;5112421;28;20043;-62
2022/06/16 11:04:11;;;;;;;6.05;4.80;;;23.50;99.90;;;23.95;42.80;102220.63;5112513;28;20040;-65